sensor_id;sensor_type;location;lat;lon;timestamp;temperature;humidity
35970;DHT22;22448;51.298;6.430;2022-11-20T00:01:05;1.10;99.90
35970;DHT22;22448;51.298;6.430;2022-11-20T00:03:32;1.10;99.90
35970;DHT22;22448;51.298;6.430;2022-11-20T00:06:03;1.10;99.90
35970;DHT22;22448;51.298;6.430;2022-11-20T00:08:31;1.10;99.90
35970;DHT22;22448;51.298;6.430;2022-11-20T00:11:02;1.10;99.90
35970;DHT22;22448;51.298;6.430;2022-11-20T00:13:29;1.10;99.90
35970;DHT22;22448;51.298;6.430;2022-11-20T00:15:58;1.10;99.90
35970;DHT22;22448;51.298;6.430;2022-11-20T00:18:26;1.10;99.90
35970;DHT22;22448;51.298;6.430;2022-11-20T00:20:53;1.10;99.90
35970;DHT22;22448;51.298;6.430;2022-11-20T00:23:20;1.20;99.90
35970;DHT22;22448;51.298;6.430;2022-11-20T00:25:47;1.20;99.90
35970;DHT22;22448;51.298;6.430;2022-11-20T00:28:14;1.20;99.90
35970;DHT22;22448;51.298;6.430;2022-11-20T00:30:41;1.20;99.90
35970;DHT22;22448;51.298;6.430;2022-11-20T00:33:08;1.20;99.90
35970;DHT22;22448;51.298;6.430;2022-11-20T00:35:35;1.20;99.90
35970;DHT22;22448;51.298;6.430;2022-11-20T00:38:02;1.20;99.90
35970;DHT22;22448;51.298;6.430;2022-11-20T00:40:29;1.20;99.90
35970;DHT22;22448;51.298;6.430;2022-11-20T00:42:56;1.20;99.90
35970;DHT22;22448;51.298;6.430;2022-11-20T00:45:23;1.20;99.90
35970;DHT22;22448;51.298;6.430;2022-11-20T00:47:50;1.20;99.90
35970;DHT22;22448;51.298;6.430;2022-11-20T00:50:17;1.10;99.90
35970;DHT22;22448;51.298;6.430;2022-11-20T00:52:44;1.10;99.90
35970;DHT22;22448;51.298;6.430;2022-11-20T00:55:11;1.10;99.90
35970;DHT22;22448;51.298;6.430;2022-11-20T00:57:38;1.20;99.90
35970;DHT22;22448;51.298;6.430;2022-11-20T01:00:06;1.20;99.90
35970;DHT22;22448;51.298;6.430;2022-11-20T01:02:36;1.10;99.90
35970;DHT22;22448;51.298;6.430;2022-11-20T01:05:03;1.10;99.90
35970;DHT22;22448;51.298;6.430;2022-11-20T01:07:30;1.10;99.90
35970;DHT22;22448;51.298;6.430;2022-11-20T01:09:58;1.10;99.90
35970;DHT22;22448;51.298;6.430;2022-11-20T01:12:25;1.00;99.90
35970;DHT22;22448;51.298;6.430;2022-11-20T01:14:52;1.10;99.90
35970;DHT22;22448;51.298;6.430;2022-11-20T01:17:19;1.00;99.90
35970;DHT22;22448;51.298;6.430;2022-11-20T01:19:49;1.00;99.90
35970;DHT22;22448;51.298;6.430;2022-11-20T01:22:17;1.00;99.90
35970;DHT22;22448;51.298;6.430;2022-11-20T01:24:44;1.00;99.90
35970;DHT22;22448;51.298;6.430;2022-11-20T01:27:11;0.90;99.90
35970;DHT22;22448;51.298;6.430;2022-11-20T01:29:38;1.00;99.90
35970;DHT22;22448;51.298;6.430;2022-11-20T01:32:05;1.00;99.90
35970;DHT22;22448;51.298;6.430;2022-11-20T01:34:32;0.90;99.90
35970;DHT22;22448;51.298;6.430;2022-11-20T01:36:59;0.90;99.90
35970;DHT22;22448;51.298;6.430;2022-11-20T01:39:26;0.90;99.90
35970;DHT22;22448;51.298;6.430;2022-11-20T01:41:55;0.90;99.90
35970;DHT22;22448;51.298;6.430;2022-11-20T01:44:54;0.90;99.90
35970;DHT22;22448;51.298;6.430;2022-11-20T01:47:32;0.80;99.90
35970;DHT22;22448;51.298;6.430;2022-11-20T01:50:22;0.70;99.90
35970;DHT22;22448;51.298;6.430;2022-11-20T01:53:00;0.60;99.90
35970;DHT22;22448;51.298;6.430;2022-11-20T01:55:32;0.50;99.90
35970;DHT22;22448;51.298;6.430;2022-11-20T01:58:00;0.30;99.90
35970;DHT22;22448;51.298;6.430;2022-11-20T02:00:28;0.20;99.90
35970;DHT22;22448;51.298;6.430;2022-11-20T02:03:01;0.20;99.90
35970;DHT22;22448;51.298;6.430;2022-11-20T02:08:32;0.00;99.90
35970;DHT22;22448;51.298;6.430;2022-11-20T02:10:59;-0.10;99.90
35970;DHT22;22448;51.298;6.430;2022-11-20T02:13:26;-0.20;99.90
35970;DHT22;22448;51.298;6.430;2022-11-20T02:16:14;-0.30;99.90
35970;DHT22;22448;51.298;6.430;2022-11-20T02:18:43;-0.40;99.90
35970;DHT22;22448;51.298;6.430;2022-11-20T02:21:19;-0.50;99.90
35970;DHT22;22448;51.298;6.430;2022-11-20T02:23:57;-0.50;99.90
35970;DHT22;22448;51.298;6.430;2022-11-20T02:26:26;-0.60;99.90
35970;DHT22;22448;51.298;6.430;2022-11-20T02:28:54;-0.70;99.90
35970;DHT22;22448;51.298;6.430;2022-11-20T02:31:21;-0.70;99.90
35970;DHT22;22448;51.298;6.430;2022-11-20T02:33:54;-0.80;99.90
35970;DHT22;22448;51.298;6.430;2022-11-20T02:36:22;-0.80;99.90
35970;DHT22;22448;51.298;6.430;2022-11-20T02:38:50;-0.80;99.90
35970;DHT22;22448;51.298;6.430;2022-11-20T02:41:17;-0.80;99.90
35970;DHT22;22448;51.298;6.430;2022-11-20T02:43:44;-0.90;99.90
35970;DHT22;22448;51.298;6.430;2022-11-20T02:46:11;-0.90;99.90
35970;DHT22;22448;51.298;6.430;2022-11-20T02:48:38;-1.00;99.90
35970;DHT22;22448;51.298;6.430;2022-11-20T02:51:05;-1.00;99.90
35970;DHT22;22448;51.298;6.430;2022-11-20T02:53:32;-1.00;99.90
35970;DHT22;22448;51.298;6.430;2022-11-20T02:55:59;-1.00;99.90
35970;DHT22;22448;51.298;6.430;2022-11-20T02:58:26;-1.00;99.90
35970;DHT22;22448;51.298;6.430;2022-11-20T03:00:53;-1.10;99.90
35970;DHT22;22448;51.298;6.430;2022-11-20T03:03:20;-1.10;99.90
35970;DHT22;22448;51.298;6.430;2022-11-20T03:05:47;-1.10;99.90
35970;DHT22;22448;51.298;6.430;2022-11-20T03:08:14;-1.10;99.90
35970;DHT22;22448;51.298;6.430;2022-11-20T03:10:41;-1.20;99.90
35970;DHT22;22448;51.298;6.430;2022-11-20T03:13:08;-1.20;99.90
35970;DHT22;22448;51.298;6.430;2022-11-20T03:15:36;-1.30;99.90
35970;DHT22;22448;51.298;6.430;2022-11-20T03:18:04;-1.30;99.90
35970;DHT22;22448;51.298;6.430;2022-11-20T03:20:32;-1.30;99.90
35970;DHT22;22448;51.298;6.430;2022-11-20T03:23:00;-1.30;99.90
35970;DHT22;22448;51.298;6.430;2022-11-20T03:25:27;-1.30;99.90
35970;DHT22;22448;51.298;6.430;2022-11-20T03:27:54;-1.30;99.90
35970;DHT22;22448;51.298;6.430;2022-11-20T03:30:21;-1.20;99.90
35970;DHT22;22448;51.298;6.430;2022-11-20T03:32:56;-1.10;99.90
35970;DHT22;22448;51.298;6.430;2022-11-20T03:35:23;-1.00;99.90
35970;DHT22;22448;51.298;6.430;2022-11-20T03:37:50;-0.90;99.90
35970;DHT22;22448;51.298;6.430;2022-11-20T03:40:17;-0.80;99.90
35970;DHT22;22448;51.298;6.430;2022-11-20T03:42:44;-0.70;99.90
35970;DHT22;22448;51.298;6.430;2022-11-20T03:45:16;-0.60;99.90
35970;DHT22;22448;51.298;6.430;2022-11-20T03:47:44;-0.50;99.90
35970;DHT22;22448;51.298;6.430;2022-11-20T03:50:12;-0.50;99.90
35970;DHT22;22448;51.298;6.430;2022-11-20T03:52:40;-0.40;99.90
35970;DHT22;22448;51.298;6.430;2022-11-20T03:55:07;-0.40;99.90
35970;DHT22;22448;51.298;6.430;2022-11-20T03:57:35;-0.40;99.90
35970;DHT22;22448;51.298;6.430;2022-11-20T04:00:03;-0.40;99.90
35970;DHT22;22448;51.298;6.430;2022-11-20T04:02:30;-0.40;99.90
35970;DHT22;22448;51.298;6.430;2022-11-20T04:04:57;-0.40;99.90
35970;DHT22;22448;51.298;6.430;2022-11-20T04:07:24;-0.40;99.90
35970;DHT22;22448;51.298;6.430;2022-11-20T04:09:51;-0.40;99.90
35970;DHT22;22448;51.298;6.430;2022-11-20T04:12:18;-0.40;99.90
35970;DHT22;22448;51.298;6.430;2022-11-20T04:14:45;-0.30;99.90
35970;DHT22;22448;51.298;6.430;2022-11-20T04:17:12;-0.30;99.90
35970;DHT22;22448;51.298;6.430;2022-11-20T04:19:39;-0.30;99.90
35970;DHT22;22448;51.298;6.430;2022-11-20T04:22:06;-0.30;99.90
35970;DHT22;22448;51.298;6.430;2022-11-20T04:24:33;-0.30;99.90
35970;DHT22;22448;51.298;6.430;2022-11-20T04:27:00;-0.20;99.90
35970;DHT22;22448;51.298;6.430;2022-11-20T04:29:27;-0.20;99.90
35970;DHT22;22448;51.298;6.430;2022-11-20T04:31:54;-0.10;99.90
35970;DHT22;22448;51.298;6.430;2022-11-20T04:34:21;-0.10;99.90
35970;DHT22;22448;51.298;6.430;2022-11-20T04:36:48;-0.10;99.90
35970;DHT22;22448;51.298;6.430;2022-11-20T04:39:15;0.00;99.90
35970;DHT22;22448;51.298;6.430;2022-11-20T04:41:42;0.00;99.90
35970;DHT22;22448;51.298;6.430;2022-11-20T04:44:09;-0.10;99.90
35970;DHT22;22448;51.298;6.430;2022-11-20T04:46:39;-0.10;99.90
35970;DHT22;22448;51.298;6.430;2022-11-20T04:49:06;-0.10;99.90
35970;DHT22;22448;51.298;6.430;2022-11-20T04:51:33;-0.10;99.90
35970;DHT22;22448;51.298;6.430;2022-11-20T04:54:01;-0.10;99.90
35970;DHT22;22448;51.298;6.430;2022-11-20T04:56:28;-0.10;99.90
35970;DHT22;22448;51.298;6.430;2022-11-20T04:58:55;-0.10;99.90
35970;DHT22;22448;51.298;6.430;2022-11-20T05:01:23;0.00;99.90
35970;DHT22;22448;51.298;6.430;2022-11-20T05:03:51;0.00;99.90
35970;DHT22;22448;51.298;6.430;2022-11-20T05:06:21;0.10;99.90
35970;DHT22;22448;51.298;6.430;2022-11-20T05:08:48;0.10;99.90
35970;DHT22;22448;51.298;6.430;2022-11-20T05:11:18;0.20;99.90
35970;DHT22;22448;51.298;6.430;2022-11-20T05:13:46;0.20;99.90
35970;DHT22;22448;51.298;6.430;2022-11-20T05:16:16;0.20;99.90
35970;DHT22;22448;51.298;6.430;2022-11-20T05:18:45;0.20;99.90
35970;DHT22;22448;51.298;6.430;2022-11-20T05:21:12;0.20;99.90
35970;DHT22;22448;51.298;6.430;2022-11-20T05:23:40;0.30;99.90
35970;DHT22;22448;51.298;6.430;2022-11-20T05:26:12;0.30;99.90
35970;DHT22;22448;51.298;6.430;2022-11-20T05:28:40;0.30;99.90
35970;DHT22;22448;51.298;6.430;2022-11-20T05:31:12;0.30;99.90
35970;DHT22;22448;51.298;6.430;2022-11-20T05:33:43;0.30;99.90
35970;DHT22;22448;51.298;6.430;2022-11-20T05:36:12;0.20;99.90
35970;DHT22;22448;51.298;6.430;2022-11-20T05:38:41;0.20;99.90
35970;DHT22;22448;51.298;6.430;2022-11-20T05:41:11;0.20;99.90
35970;DHT22;22448;51.298;6.430;2022-11-20T05:43:40;0.20;99.90
35970;DHT22;22448;51.298;6.430;2022-11-20T05:46:10;0.30;99.90
35970;DHT22;22448;51.298;6.430;2022-11-20T05:48:38;0.30;99.90
35970;DHT22;22448;51.298;6.430;2022-11-20T05:51:08;0.30;99.90
35970;DHT22;22448;51.298;6.430;2022-11-20T05:53:36;0.40;99.90
35970;DHT22;22448;51.298;6.430;2022-11-20T05:56:09;0.40;99.90
35970;DHT22;22448;51.298;6.430;2022-11-20T05:58:37;0.30;99.90
35970;DHT22;22448;51.298;6.430;2022-11-20T06:01:09;0.30;99.90
35970;DHT22;22448;51.298;6.430;2022-11-20T06:03:37;0.30;99.90
35970;DHT22;22448;51.298;6.430;2022-11-20T06:06:05;0.30;99.90
35970;DHT22;22448;51.298;6.430;2022-11-20T06:08:32;0.20;99.90
35970;DHT22;22448;51.298;6.430;2022-11-20T06:11:06;0.20;99.90
35970;DHT22;22448;51.298;6.430;2022-11-20T06:13:35;0.20;99.90
35970;DHT22;22448;51.298;6.430;2022-11-20T06:16:08;0.30;99.90
35970;DHT22;22448;51.298;6.430;2022-11-20T06:18:35;0.30;99.90
35970;DHT22;22448;51.298;6.430;2022-11-20T06:21:05;0.30;99.90
35970;DHT22;22448;51.298;6.430;2022-11-20T06:23:33;0.30;99.90
35970;DHT22;22448;51.298;6.430;2022-11-20T06:26:03;0.20;99.90
35970;DHT22;22448;51.298;6.430;2022-11-20T06:28:30;0.20;99.90
35970;DHT22;22448;51.298;6.430;2022-11-20T06:30:58;0.10;99.90
35970;DHT22;22448;51.298;6.430;2022-11-20T06:33:25;0.10;99.90
35970;DHT22;22448;51.298;6.430;2022-11-20T06:35:52;0.10;99.90
35970;DHT22;22448;51.298;6.430;2022-11-20T06:38:26;0.10;99.90
35970;DHT22;22448;51.298;6.430;2022-11-20T06:40:54;0.10;99.90
35970;DHT22;22448;51.298;6.430;2022-11-20T06:43:22;0.00;99.90
35970;DHT22;22448;51.298;6.430;2022-11-20T06:45:53;0.00;99.90
35970;DHT22;22448;51.298;6.430;2022-11-20T06:48:22;-0.10;99.90
35970;DHT22;22448;51.298;6.430;2022-11-20T06:50:49;0.00;99.90
35970;DHT22;22448;51.298;6.430;2022-11-20T06:53:16;0.00;99.90
35970;DHT22;22448;51.298;6.430;2022-11-20T06:55:47;0.00;99.90
35970;DHT22;22448;51.298;6.430;2022-11-20T06:58:15;0.10;99.90
35970;DHT22;22448;51.298;6.430;2022-11-20T07:00:42;0.10;99.90
35970;DHT22;22448;51.298;6.430;2022-11-20T07:03:11;0.20;99.90
35970;DHT22;22448;51.298;6.430;2022-11-20T07:05:38;0.20;99.90
35970;DHT22;22448;51.298;6.430;2022-11-20T07:08:05;0.30;99.90
35970;DHT22;22448;51.298;6.430;2022-11-20T07:10:32;0.30;99.90
35970;DHT22;22448;51.298;6.430;2022-11-20T07:12:59;0.40;99.90
35970;DHT22;22448;51.298;6.430;2022-11-20T07:15:27;0.40;99.90
35970;DHT22;22448;51.298;6.430;2022-11-20T07:17:54;0.50;99.90
35970;DHT22;22448;51.298;6.430;2022-11-20T07:20:21;0.50;99.90
35970;DHT22;22448;51.298;6.430;2022-11-20T07:22:56;0.50;99.90
35970;DHT22;22448;51.298;6.430;2022-11-20T07:25:27;0.50;99.90
35970;DHT22;22448;51.298;6.430;2022-11-20T07:27:58;0.50;99.90
35970;DHT22;22448;51.298;6.430;2022-11-20T07:30:27;0.50;99.90
35970;DHT22;22448;51.298;6.430;2022-11-20T07:32:55;0.60;99.90
35970;DHT22;22448;51.298;6.430;2022-11-20T07:35:23;0.60;99.90
35970;DHT22;22448;51.298;6.430;2022-11-20T07:37:51;0.60;99.90
35970;DHT22;22448;51.298;6.430;2022-11-20T07:40:18;0.60;99.90
35970;DHT22;22448;51.298;6.430;2022-11-20T07:42:53;0.70;99.90
35970;DHT22;22448;51.298;6.430;2022-11-20T07:45:22;0.70;99.90
35970;DHT22;22448;51.298;6.430;2022-11-20T07:47:50;0.80;99.90
35970;DHT22;22448;51.298;6.430;2022-11-20T07:50:17;0.80;99.90
35970;DHT22;22448;51.298;6.430;2022-11-20T07:52:45;0.90;99.90
35970;DHT22;22448;51.298;6.430;2022-11-20T07:55:12;0.90;99.90
35970;DHT22;22448;51.298;6.430;2022-11-20T07:57:39;0.90;99.90
35970;DHT22;22448;51.298;6.430;2022-11-20T08:00:09;0.90;99.90
35970;DHT22;22448;51.298;6.430;2022-11-20T08:02:40;0.90;99.90
35970;DHT22;22448;51.298;6.430;2022-11-20T08:05:08;0.90;99.90
35970;DHT22;22448;51.298;6.430;2022-11-20T08:07:39;1.00;99.90
35970;DHT22;22448;51.298;6.430;2022-11-20T08:10:09;1.10;99.90
35970;DHT22;22448;51.298;6.430;2022-11-20T08:12:42;1.10;99.90
35970;DHT22;22448;51.298;6.430;2022-11-20T08:15:28;1.20;99.90
35970;DHT22;22448;51.298;6.430;2022-11-20T08:18:01;1.30;99.90
35970;DHT22;22448;51.298;6.430;2022-11-20T08:20:48;1.40;99.90
35970;DHT22;22448;51.298;6.430;2022-11-20T08:23:15;1.50;99.90
35970;DHT22;22448;51.298;6.430;2022-11-20T08:25:42;1.50;99.90
35970;DHT22;22448;51.298;6.430;2022-11-20T08:28:09;1.60;99.90
35970;DHT22;22448;51.298;6.430;2022-11-20T08:30:46;1.70;99.90
35970;DHT22;22448;51.298;6.430;2022-11-20T08:33:14;1.70;99.90
35970;DHT22;22448;51.298;6.430;2022-11-20T08:35:41;1.80;99.90
35970;DHT22;22448;51.298;6.430;2022-11-20T08:38:09;1.80;99.90
35970;DHT22;22448;51.298;6.430;2022-11-20T08:40:36;1.80;99.90
35970;DHT22;22448;51.298;6.430;2022-11-20T08:43:03;1.80;99.90
35970;DHT22;22448;51.298;6.430;2022-11-20T08:45:30;1.90;99.90
35970;DHT22;22448;51.298;6.430;2022-11-20T08:48:01;1.90;99.90
35970;DHT22;22448;51.298;6.430;2022-11-20T08:50:30;2.00;99.90
35970;DHT22;22448;51.298;6.430;2022-11-20T08:53:05;2.00;99.90
35970;DHT22;22448;51.298;6.430;2022-11-20T08:55:33;2.00;99.90
35970;DHT22;22448;51.298;6.430;2022-11-20T08:58:08;2.10;99.90
35970;DHT22;22448;51.298;6.430;2022-11-20T09:00:35;2.10;99.90
35970;DHT22;22448;51.298;6.430;2022-11-20T09:03:02;2.10;99.90
35970;DHT22;22448;51.298;6.430;2022-11-20T09:05:29;2.10;99.90
35970;DHT22;22448;51.298;6.430;2022-11-20T09:07:57;2.10;99.90
35970;DHT22;22448;51.298;6.430;2022-11-20T09:10:26;2.10;99.90
35970;DHT22;22448;51.298;6.430;2022-11-20T09:12:54;2.20;99.90
35970;DHT22;22448;51.298;6.430;2022-11-20T09:15:25;2.30;99.90
35970;DHT22;22448;51.298;6.430;2022-11-20T09:17:58;2.40;99.90
35970;DHT22;22448;51.298;6.430;2022-11-20T09:20:27;2.60;99.90
35970;DHT22;22448;51.298;6.430;2022-11-20T09:22:55;2.60;99.90
35970;DHT22;22448;51.298;6.430;2022-11-20T09:25:22;2.60;99.90
35970;DHT22;22448;51.298;6.430;2022-11-20T09:27:57;2.70;99.90
35970;DHT22;22448;51.298;6.430;2022-11-20T09:30:26;2.80;99.90
35970;DHT22;22448;51.298;6.430;2022-11-20T09:32:53;2.90;99.90
35970;DHT22;22448;51.298;6.430;2022-11-20T09:35:20;3.00;99.90
35970;DHT22;22448;51.298;6.430;2022-11-20T09:37:46;3.10;99.90
35970;DHT22;22448;51.298;6.430;2022-11-20T09:40:20;3.10;99.90
35970;DHT22;22448;51.298;6.430;2022-11-20T09:51:43;3.20;99.90
35970;DHT22;22448;51.298;6.430;2022-11-20T09:54:35;3.30;99.90
35970;DHT22;22448;51.298;6.430;2022-11-20T09:57:12;3.30;99.90
35970;DHT22;22448;51.298;6.430;2022-11-20T09:59:42;3.40;99.90
35970;DHT22;22448;51.298;6.430;2022-11-20T10:02:58;3.30;99.90
35970;DHT22;22448;51.298;6.430;2022-11-20T10:05:18;3.30;99.90
35970;DHT22;22448;51.298;6.430;2022-11-20T10:10:38;3.30;99.90
35970;DHT22;22448;51.298;6.430;2022-11-20T10:13:40;3.30;99.90
35970;DHT22;22448;51.298;6.430;2022-11-20T10:16:26;3.30;99.90
35970;DHT22;22448;51.298;6.430;2022-11-20T10:22:04;3.40;99.90
35970;DHT22;22448;51.298;6.430;2022-11-20T10:24:56;3.40;99.90
35970;DHT22;22448;51.298;6.430;2022-11-20T10:28:09;3.40;99.90
35970;DHT22;22448;51.298;6.430;2022-11-20T10:30:41;3.40;99.90
35970;DHT22;22448;51.298;6.430;2022-11-20T10:33:17;3.40;99.90
35970;DHT22;22448;51.298;6.430;2022-11-20T10:35:53;3.40;99.90
35970;DHT22;22448;51.298;6.430;2022-11-20T10:38:26;3.40;99.90
35970;DHT22;22448;51.298;6.430;2022-11-20T10:41:01;3.40;99.90
35970;DHT22;22448;51.298;6.430;2022-11-20T10:43:50;3.40;99.90
35970;DHT22;22448;51.298;6.430;2022-11-20T10:46:21;3.50;99.90
35970;DHT22;22448;51.298;6.430;2022-11-20T10:48:49;3.50;99.90
35970;DHT22;22448;51.298;6.430;2022-11-20T10:51:39;3.60;99.90
35970;DHT22;22448;51.298;6.430;2022-11-20T10:54:19;3.60;99.90
35970;DHT22;22448;51.298;6.430;2022-11-20T10:56:53;3.60;99.90
35970;DHT22;22448;51.298;6.430;2022-11-20T11:00:05;3.70;99.90
35970;DHT22;22448;51.298;6.430;2022-11-20T11:02:35;3.70;99.90
35970;DHT22;22448;51.298;6.430;2022-11-20T11:05:31;3.80;99.90
35970;DHT22;22448;51.298;6.430;2022-11-20T11:07:59;3.90;99.90
35970;DHT22;22448;51.298;6.430;2022-11-20T11:10:48;3.90;99.90
35970;DHT22;22448;51.298;6.430;2022-11-20T11:15:52;3.80;99.90
35970;DHT22;22448;51.298;6.430;2022-11-20T11:18:28;3.80;99.90
35970;DHT22;22448;51.298;6.430;2022-11-20T11:20:57;3.80;99.90
35970;DHT22;22448;51.298;6.430;2022-11-20T11:23:37;3.80;99.90
35970;DHT22;22448;51.298;6.430;2022-11-20T11:26:07;3.90;99.90
35970;DHT22;22448;51.298;6.430;2022-11-20T11:29:01;3.90;99.90
35970;DHT22;22448;51.298;6.430;2022-11-20T11:31:33;4.10;99.90
35970;DHT22;22448;51.298;6.430;2022-11-20T11:34:27;4.10;99.90
35970;DHT22;22448;51.298;6.430;2022-11-20T11:36:58;4.10;99.90
35970;DHT22;22448;51.298;6.430;2022-11-20T11:39:27;4.20;99.90
35970;DHT22;22448;51.298;6.430;2022-11-20T11:41:55;4.20;99.90
35970;DHT22;22448;51.298;6.430;2022-11-20T11:44:30;4.20;99.90
35970;DHT22;22448;51.298;6.430;2022-11-20T11:47:29;4.20;99.90
35970;DHT22;22448;51.298;6.430;2022-11-20T11:55:26;4.30;99.90
35970;DHT22;22448;51.298;6.430;2022-11-20T12:06:43;4.40;99.90
35970;DHT22;22448;51.298;6.430;2022-11-20T12:09:11;4.40;99.90
35970;DHT22;22448;51.298;6.430;2022-11-20T12:12:27;4.40;99.90
35970;DHT22;22448;51.298;6.430;2022-11-20T12:14:53;4.50;99.90
35970;DHT22;22448;51.298;6.430;2022-11-20T12:17:21;4.50;99.90
35970;DHT22;22448;51.298;6.430;2022-11-20T12:19:48;4.50;99.90
35970;DHT22;22448;51.298;6.430;2022-11-20T12:22:26;4.50;99.90
35970;DHT22;22448;51.298;6.430;2022-11-20T12:25:04;4.60;99.90
35970;DHT22;22448;51.298;6.430;2022-11-20T12:30:15;4.50;99.90
35970;DHT22;22448;51.298;6.430;2022-11-20T12:35:42;4.50;99.90
35970;DHT22;22448;51.298;6.430;2022-11-20T12:38:40;4.50;99.90
35970;DHT22;22448;51.298;6.430;2022-11-20T12:41:43;4.40;99.90
35970;DHT22;22448;51.298;6.430;2022-11-20T12:48:25;4.50;99.90
35970;DHT22;22448;51.298;6.430;2022-11-20T12:54:34;4.50;99.90
35970;DHT22;22448;51.298;6.430;2022-11-20T12:57:09;4.50;99.90
35970;DHT22;22448;51.298;6.430;2022-11-20T13:07:53;4.50;99.90
35970;DHT22;22448;51.298;6.430;2022-11-20T13:10:43;4.50;99.90
35970;DHT22;22448;51.298;6.430;2022-11-20T13:13:35;4.60;99.90
35970;DHT22;22448;51.298;6.430;2022-11-20T13:18:45;4.60;99.90
35970;DHT22;22448;51.298;6.430;2022-11-20T13:23:43;4.60;99.90
35970;DHT22;22448;51.298;6.430;2022-11-20T13:26:22;4.70;99.90
35970;DHT22;22448;51.298;6.430;2022-11-20T13:29:09;4.70;99.90
35970;DHT22;22448;51.298;6.430;2022-11-20T13:31:42;4.70;99.90
35970;DHT22;22448;51.298;6.430;2022-11-20T13:34:14;4.70;99.90
35970;DHT22;22448;51.298;6.430;2022-11-20T13:36:52;4.80;99.90
35970;DHT22;22448;51.298;6.430;2022-11-20T13:39:26;4.70;99.90
35970;DHT22;22448;51.298;6.430;2022-11-20T13:42:01;4.70;99.90
35970;DHT22;22448;51.298;6.430;2022-11-20T13:44:52;4.80;99.90
35970;DHT22;22448;51.298;6.430;2022-11-20T13:47:25;4.80;99.90
35970;DHT22;22448;51.298;6.430;2022-11-20T13:49:53;4.80;99.90
35970;DHT22;22448;51.298;6.430;2022-11-20T13:55:16;4.90;99.90
35970;DHT22;22448;51.298;6.430;2022-11-20T13:58:05;5.00;99.90
35970;DHT22;22448;51.298;6.430;2022-11-20T14:00:52;5.00;99.90
35970;DHT22;22448;51.298;6.430;2022-11-20T14:03:23;5.00;99.90
35970;DHT22;22448;51.298;6.430;2022-11-20T14:06:29;5.00;99.90
35970;DHT22;22448;51.298;6.430;2022-11-20T14:08:59;4.90;99.90
35970;DHT22;22448;51.298;6.430;2022-11-20T14:11:29;4.90;99.90
35970;DHT22;22448;51.298;6.430;2022-11-20T14:14:00;4.90;99.90
35970;DHT22;22448;51.298;6.430;2022-11-20T14:16:31;4.80;99.90
35970;DHT22;22448;51.298;6.430;2022-11-20T14:21:55;4.80;99.90
35970;DHT22;22448;51.298;6.430;2022-11-20T14:24:32;4.90;99.90
35970;DHT22;22448;51.298;6.430;2022-11-20T14:27:00;4.90;99.90
35970;DHT22;22448;51.298;6.430;2022-11-20T14:29:33;4.90;99.90
35970;DHT22;22448;51.298;6.430;2022-11-20T14:32:02;4.90;99.90
35970;DHT22;22448;51.298;6.430;2022-11-20T14:34:32;4.90;99.90
35970;DHT22;22448;51.298;6.430;2022-11-20T14:37:05;4.90;99.90
35970;DHT22;22448;51.298;6.430;2022-11-20T14:39:41;4.90;99.90
35970;DHT22;22448;51.298;6.430;2022-11-20T14:42:23;4.90;99.90
35970;DHT22;22448;51.298;6.430;2022-11-20T14:44:52;4.80;99.90
35970;DHT22;22448;51.298;6.430;2022-11-20T14:47:29;4.80;99.90
35970;DHT22;22448;51.298;6.430;2022-11-20T14:49:58;4.80;99.90
35970;DHT22;22448;51.298;6.430;2022-11-20T14:52:31;4.80;99.90
35970;DHT22;22448;51.298;6.430;2022-11-20T14:54:58;4.80;99.90
35970;DHT22;22448;51.298;6.430;2022-11-20T15:00:24;4.80;99.90
35970;DHT22;22448;51.298;6.430;2022-11-20T15:02:52;4.70;99.90
35970;DHT22;22448;51.298;6.430;2022-11-20T15:05:21;4.80;99.90
35970;DHT22;22448;51.298;6.430;2022-11-20T15:08:07;4.80;99.90
35970;DHT22;22448;51.298;6.430;2022-11-20T15:10:34;4.70;99.90
35970;DHT22;22448;51.298;6.430;2022-11-20T15:13:05;4.70;99.90
35970;DHT22;22448;51.298;6.430;2022-11-20T15:15:48;4.70;99.90
35970;DHT22;22448;51.298;6.430;2022-11-20T15:18:17;4.70;99.90
35970;DHT22;22448;51.298;6.430;2022-11-20T15:20:45;4.70;99.90
35970;DHT22;22448;51.298;6.430;2022-11-20T15:23:14;4.70;99.90
35970;DHT22;22448;51.298;6.430;2022-11-20T15:25:42;4.70;99.90
35970;DHT22;22448;51.298;6.430;2022-11-20T15:28:19;4.70;99.90
35970;DHT22;22448;51.298;6.430;2022-11-20T15:30:48;4.60;99.90
35970;DHT22;22448;51.298;6.430;2022-11-20T15:33:16;4.60;99.90
35970;DHT22;22448;51.298;6.430;2022-11-20T15:35:43;4.60;99.90
35970;DHT22;22448;51.298;6.430;2022-11-20T15:38:10;4.50;99.90
35970;DHT22;22448;51.298;6.430;2022-11-20T15:40:38;4.50;99.90
35970;DHT22;22448;51.298;6.430;2022-11-20T15:43:05;4.50;99.90
35970;DHT22;22448;51.298;6.430;2022-11-20T15:45:43;4.50;99.90
35970;DHT22;22448;51.298;6.430;2022-11-20T15:48:19;4.50;99.90
35970;DHT22;22448;51.298;6.430;2022-11-20T15:53:15;4.50;99.90
35970;DHT22;22448;51.298;6.430;2022-11-20T15:55:42;4.50;99.90
35970;DHT22;22448;51.298;6.430;2022-11-20T15:58:09;4.50;99.90
35970;DHT22;22448;51.298;6.430;2022-11-20T16:00:36;4.50;99.90
35970;DHT22;22448;51.298;6.430;2022-11-20T16:03:03;4.50;99.90
35970;DHT22;22448;51.298;6.430;2022-11-20T16:05:30;4.50;99.90
35970;DHT22;22448;51.298;6.430;2022-11-20T16:07:57;4.50;99.90
35970;DHT22;22448;51.298;6.430;2022-11-20T16:10:24;4.60;99.90
35970;DHT22;22448;51.298;6.430;2022-11-20T16:12:51;4.60;99.90
35970;DHT22;22448;51.298;6.430;2022-11-20T16:15:36;4.60;99.90
35970;DHT22;22448;51.298;6.430;2022-11-20T16:18:17;4.60;99.90
35970;DHT22;22448;51.298;6.430;2022-11-20T16:20:50;4.60;99.90
35970;DHT22;22448;51.298;6.430;2022-11-20T16:23:17;4.60;99.90
35970;DHT22;22448;51.298;6.430;2022-11-20T16:25:44;4.60;99.90
35970;DHT22;22448;51.298;6.430;2022-11-20T16:28:11;4.60;99.90
35970;DHT22;22448;51.298;6.430;2022-11-20T16:30:44;4.60;99.90
35970;DHT22;22448;51.298;6.430;2022-11-20T16:33:13;4.60;99.90
35970;DHT22;22448;51.298;6.430;2022-11-20T16:35:40;4.60;99.90
35970;DHT22;22448;51.298;6.430;2022-11-20T16:38:07;4.60;99.90
35970;DHT22;22448;51.298;6.430;2022-11-20T16:40:34;4.60;99.90
35970;DHT22;22448;51.298;6.430;2022-11-20T16:43:11;4.60;99.90
35970;DHT22;22448;51.298;6.430;2022-11-20T16:45:41;4.60;99.90
35970;DHT22;22448;51.298;6.430;2022-11-20T16:48:13;4.60;99.90
35970;DHT22;22448;51.298;6.430;2022-11-20T16:50:49;4.60;99.90
35970;DHT22;22448;51.298;6.430;2022-11-20T16:53:18;4.60;99.90
35970;DHT22;22448;51.298;6.430;2022-11-20T16:55:45;4.60;99.90
35970;DHT22;22448;51.298;6.430;2022-11-20T16:58:13;4.70;99.90
35970;DHT22;22448;51.298;6.430;2022-11-20T17:00:40;4.70;99.90
35970;DHT22;22448;51.298;6.430;2022-11-20T17:03:14;4.70;99.90
35970;DHT22;22448;51.298;6.430;2022-11-20T17:05:43;4.70;99.90
35970;DHT22;22448;51.298;6.430;2022-11-20T17:08:10;4.70;99.90
35970;DHT22;22448;51.298;6.430;2022-11-20T17:10:37;4.70;99.90
35970;DHT22;22448;51.298;6.430;2022-11-20T17:13:03;4.70;99.90
35970;DHT22;22448;51.298;6.430;2022-11-20T17:15:30;4.70;99.90
35970;DHT22;22448;51.298;6.430;2022-11-20T17:17:57;4.80;99.90
35970;DHT22;22448;51.298;6.430;2022-11-20T17:20:24;4.80;99.90